Meath Environmental Platform

Observations for Trim Patrick St

Time AQI Temp °C Hum % Pres Pa CO μg/m³ H₂S μg/m³ NO μg/m³ NO₂ μg/m³ O₃ μg/m³ SO₂ μg/m³ PM1 μg/m³ PM2.5 μg/m³ PM10 μg/m³
Sunday 9 August 2026
01:30 2 18.9 68 80,132 0 1.85 1.99 13.06 38.53 0.71 4.57 8.94 9.84
01:29 2 18.9 67 80,156 0 3.37 1.8 23 42.16 0.16 3.71 7.51 8.26
01:28 2 18.9 68 80,148 0 2.61 1.74 21.34 39.13 0.11 4.57 8.22 9.04
01:27 2 18.9 67 80,128 0 3.06 1.93 25.43 35.97 0.08 4.57 8.25 9.08
01:25 2 18.9 67 80,197 0 3.42 1.88 17.67 41.84 0.54 4.57 8.98 9.88
01:22 2 18.9 67 80,183 0 1.35 2 19.15 38.66 0.27 5.43 8.96 9.86
01:21 2 18.9 67 80,236 0 0.14 1.8 12.78 38.93 0.17 3.71 7.51 8.26
01:20 2 19 67 80,351 0 3 1.73 13.33 46.89 0.83 5.43 8.95 9.84
01:19 2 19 67 80,406 0 2.56 1.64 19.43 39.02 0.37 2.86 6.8 7.48
01:18 2 19 66 80,441 0 3.16 1.65 20.46 34.39 0.45 4.57 9.09 10
01:17 2 19 67 80,396 0 3 1.57 18.69 45.3 0.99 3.71 7.51 8.26
01:16 2 19 67 80,457 0 2.4 1.49 12.82 38.47 0.83 2.86 7.5 8.25
01:15 2 19 67 80,482 0 2.69 1.71 18.67 40.02 0.66 3.71 7.5 8.25
01:14 2 19 67 80,480 0 3.08 1.71 21.63 38.07 0.37 2.86 6.06 6.67
01:13 2 19 67 80,445 0 2.06 1.78 18.3 37.78 1.26 3.71 8.22 9.04
01:12 2 19 67 80,445 0 1.85 1.79 13.02 41.21 0.99 2.86 6.78 7.46
01:10 2 19 67 80,380 0 4.08 1.31 20.5 44.61 0.61 4.57 8.23 9.05
01:08 2 19 67 80,168 0 3.45 1.33 16.89 38.09 0.15 3.71 8.26 9.08
01:07 2 19 66 80,012 0 4.29 1.36 22 39.17 0.18 2.86 6.15 6.77
01:06 2 19 66 79,868 0 4.89 1.4 24.85 52.64 0.31 2.86 6.86 7.54